Terminal Aerodrome Forecast
Issued by NWS

Home | Current Version | Previous Version | Graphics & Text | Print | Product List | Glossary On
Versions: 1 2 3 4 5 6 7 8 9 10 11 12 13 14 15 16 17 18 19 20 21 22 23 24 25 26 27
613
FTUS43 KDLH 101309 AAA
TAFHIB
TAF AMD
KHIB 101309Z 1013/1112 00000KT P6SM FEW017 OVC025
     FM101400 29003KT P6SM SCT025
     FM101600 29003KT P6SM BKN025
     FM101800 VRB02KT P6SM SCT030 SCT200
     FM110000 12002KT P6SM OVC100
     FM110900 08004KT P6SM -SN OVC030=

USA.gov is the U.S. government's official web portal to all federal, state and local government web resources and services.